Terminal Aerodrome Forecast
Issued by NWS

Current Version | Previous Version | Text Only | Print | Product List | Glossary Off
Versions: 1 2 3 4 5 6 7 8 9 10 11 12 13 14 15

000
FTUS41 KRNK 241120
TAFLWB
TAF
KLWB 241120Z 2412/2512 02004KT 5SM BR SCT040
     FM241300 10003KT P6SM SCT250
     FM250900 VRB02KT 1/2SM FG BKN002=

USA.gov is the U.S. government's official web portal to all federal, state and local government web resources and services.